Date,TemperatureHighF,TemperatureAvgF,TemperatureLowF,DewpointHighF,DewpointAvgF,DewpointLowF,HumidityHigh,HumidityAvg,HumidityLow,PressureMaxIn,PressureMinIn,WindSpeedMaxMPH,WindSpeedAvgMPH,GustSpeedMaxMPH,PrecipitationSumIn
2013-1-1,22.0,13.0,8.0,13.0,4.0,-2.0,88,68,34,0.00,40.00,0,-999,0,0.00
2013-1-2,17.0,12.0,7.0,5.0,-2.4,-13.0,77,54,24,0.00,40.00,0,-999,0,0.00
2013-1-3,41.0,26.2,18.0,8.0,-4.4,-17.0,41,26,16,0.00,40.00,0,-999,0,0.00
2013-1-4,40.0,26.7,14.0,6.0,-1.1,-12.0,51,31,18,0.00,40.00,0,-999,0,0.00
2013-1-5,30.0,16.6,4.0,12.0,0.0,-15.0,74,50,20,0.00,40.00,0,-999,0,0.00
2013-1-6,40.0,28.5,16.0,12.0,-2.2,-22.0,51,29,8,0.00,40.00,0,-999,0,0.00
2013-1-7,31.0,24.4,13.0,15.0,8.1,0.0,69,50,32,0.00,40.00,0,-999,0,0.00
2013-1-8,28.0,23.3,20.0,15.0,9.9,5.0,70,56,47,0.00,40.00,0,-999,0,0.00
2013-1-9,42.0,34.7,27.0,15.0,7.0,-1.0,58,33,19,0.00,40.00,0,-999,0,0.00
2013-1-10,37.0,31.8,21.0,16.0,8.9,-2.0,80,42,19,0.00,40.00,0,-999,0,0.00
2013-1-11,22.0,5.6,-6.0,18.0,2.2,-10.0,90,85,80,0.00,40.00,0,-999,0,0.00
2013-1-12,0.0,-5.0,-12.0,-5.0,-9.4,-16.0,83,80,73,0.00,40.00,0,-999,0,0.00
2013-1-13,-1.0,-9.2,-18.0,-7.0,-14.0,-23.0,83,79,76,0.00,40.00,0,-999,0,0.00
2013-1-14,8.0,-4.0,-16.0,3.0,-11.9,-22.0,80,69,48,0.00,40.00,0,-999,0,0.00
2013-1-15,31.0,22.4,8.0,22.0,15.9,4.0,88,76,59,0.00,40.00,0,-999,0,0.02
2013-1-16,36.0,27.6,13.0,17.0,11.1,6.0,75,51,33,0.00,40.00,0,-999,0,0.01
2013-1-17,40.0,23.1,8.0,16.0,5.6,-1.0,86,54,24,0.00,40.00,0,-999,0,0.00
2013-1-18,43.0,34.5,29.0,5.0,1.8,-4.0,33,24,18,0.00,40.00,0,-999,0,0.01
2013-1-19,39.0,31.9,28.0,5.0,-5.5,-11.0,37,20,13,0.00,40.00,0,-999,0,0.00
2013-1-20,30.0,25.9,12.0,21.0,6.0,-3.0,93,43,24,0.00,40.00,0,-999,0,0.00
2013-1-21,39.0,32.7,26.0,12.0,4.5,-12.0,49,32,12,0.00,40.00,0,-999,0,0.00
2013-1-22,44.0,34.6,21.0,10.0,-4.5,-14.0,39,20,9,0.00,40.00,0,-999,0,0.00
2013-1-23,44.0,38.0,32.0,5.0,-1.6,-7.0,30,19,13,0.00,40.00,0,-999,0,0.01
2013-1-24,39.0,32.3,24.0,17.0,10.0,-6.0,69,41,15,0.00,40.00,0,-999,0,0.00
2013-1-25,40.0,29.8,22.0,15.0,8.3,3.0,68,42,25,0.00,40.00,0,-999,0,0.00
2013-1-26,39.0,30.7,24.0,19.0,16.9,14.0,69,57,41,0.00,40.00,0,-999,0,0.00
2013-1-27,33.0,25.3,16.0,23.0,18.2,14.0,97,76,54,0.00,40.00,0,-999,0,0.01
2013-1-28,15.0,10.3,-1.0,13.0,7.8,-5.0,93,89,83,0.00,40.00,0,-999,0,0.01
2013-1-29,14.0,4.1,-2.0,7.0,-1.4,-9.0,85,78,67,0.00,40.00,0,-999,0,0.00
2013-1-30,20.0,15.1,1.0,12.0,7.0,-8.0,77,70,61,0.00,40.00,0,-999,0,0.00
2013-1-31,25.0,22.9,20.0,14.0,11.6,7.0,69,61,54,0.00,40.00,0,-999,0,0.01